sensor_id;sensor_type;location;lat;lon;timestamp;pressure;altitude;pressure_sealevel;temperature;humidity
71917;BME280;59793;46.506;6.674;2023-04-26T00:01:10;97134.00;;;8.22;66.23
71917;BME280;59793;46.506;6.674;2023-04-26T00:03:36;97100.00;;;7.92;66.53
71917;BME280;59793;46.506;6.674;2023-04-26T00:06:01;97129.53;;;8.01;66.65
71917;BME280;59793;46.506;6.674;2023-04-26T00:08:29;97147.34;;;8.17;66.76
71917;BME280;59793;46.506;6.674;2023-04-26T00:10:55;97135.91;;;8.12;66.13
71917;BME280;59793;46.506;6.674;2023-04-26T00:13:21;97109.19;;;7.98;66.61
71917;BME280;59793;46.506;6.674;2023-04-26T00:15:46;97136.50;;;8.18;65.84
71917;BME280;59793;46.506;6.674;2023-04-26T00:18:11;97090.44;;;7.87;66.58
71917;BME280;59793;46.506;6.674;2023-04-26T00:20:37;97148.38;;;8.36;65.93
71917;BME280;59793;46.506;6.674;2023-04-26T00:23:03;97124.78;;;8.15;66.42
71917;BME280;59793;46.506;6.674;2023-04-26T00:25:29;97144.56;;;8.34;65.96
71917;BME280;59793;46.506;6.674;2023-04-26T00:27:54;97131.50;;;8.25;64.62
71917;BME280;59793;46.506;6.674;2023-04-26T00:30:20;97121.34;;;8.36;64.60
71917;BME280;59793;46.506;6.674;2023-04-26T00:32:46;97144.09;;;8.53;64.95
71917;BME280;59793;46.506;6.674;2023-04-26T00:35:12;97138.84;;;8.53;64.63
71917;BME280;59793;46.506;6.674;2023-04-26T00:37:37;97148.41;;;8.70;64.52
71917;BME280;59793;46.506;6.674;2023-04-26T00:40:03;97131.09;;;8.69;64.23
71917;BME280;59793;46.506;6.674;2023-04-26T00:42:30;97136.03;;;8.82;64.17
71917;BME280;59793;46.506;6.674;2023-04-26T00:44:55;97122.91;;;8.70;64.00
71917;BME280;59793;46.506;6.674;2023-04-26T00:47:22;97142.97;;;8.87;64.35
71917;BME280;59793;46.506;6.674;2023-04-26T00:49:48;97124.72;;;8.57;64.80
71917;BME280;59793;46.506;6.674;2023-04-26T00:52:14;97123.84;;;8.66;64.97
71917;BME280;59793;46.506;6.674;2023-04-26T00:54:40;97140.69;;;8.52;65.51
71917;BME280;59793;46.506;6.674;2023-04-26T00:57:06;97136.97;;;8.53;65.62
71917;BME280;59793;46.506;6.674;2023-04-26T00:59:34;97126.59;;;8.36;65.84
71917;BME280;59793;46.506;6.674;2023-04-26T01:02:02;97143.75;;;8.54;65.81
71917;BME280;59793;46.506;6.674;2023-04-26T01:04:27;97145.25;;;8.43;65.91
71917;BME280;59793;46.506;6.674;2023-04-26T01:06:54;97128.22;;;8.49;65.59
71917;BME280;59793;46.506;6.674;2023-04-26T01:09:20;97136.63;;;8.55;65.84
71917;BME280;59793;46.506;6.674;2023-04-26T01:11:46;97115.22;;;8.53;65.41
71917;BME280;59793;46.506;6.674;2023-04-26T01:14:13;97120.81;;;8.30;66.48
71917;BME280;59793;46.506;6.674;2023-04-26T01:16:39;97127.00;;;8.47;66.37
71917;BME280;59793;46.506;6.674;2023-04-26T01:19:08;97128.44;;;8.56;66.09
71917;BME280;59793;46.506;6.674;2023-04-26T01:21:36;97079.91;;;7.96;67.15
71917;BME280;59793;46.506;6.674;2023-04-26T01:24:02;97097.47;;;8.17;67.22
71917;BME280;59793;46.506;6.674;2023-04-26T01:26:28;97120.41;;;8.20;67.35
71917;BME280;59793;46.506;6.674;2023-04-26T01:28:53;97133.66;;;8.23;67.19
71917;BME280;59793;46.506;6.674;2023-04-26T01:31:18;97136.34;;;8.35;66.57
71917;BME280;59793;46.506;6.674;2023-04-26T01:33:44;97128.84;;;8.46;66.78
71917;BME280;59793;46.506;6.674;2023-04-26T01:36:09;97123.28;;;8.27;67.07
71917;BME280;59793;46.506;6.674;2023-04-26T01:38:35;97140.38;;;8.33;67.46
71917;BME280;59793;46.506;6.674;2023-04-26T01:41:01;97136.28;;;8.44;66.93
71917;BME280;59793;46.506;6.674;2023-04-26T01:43:26;97136.22;;;8.53;66.47
71917;BME280;59793;46.506;6.674;2023-04-26T01:45:52;97131.25;;;8.39;66.87
71917;BME280;59793;46.506;6.674;2023-04-26T01:48:17;97111.47;;;8.21;67.16
71917;BME280;59793;46.506;6.674;2023-04-26T01:50:42;97146.34;;;8.42;67.59
71917;BME280;59793;46.506;6.674;2023-04-26T01:53:08;97113.09;;;8.13;68.07
71917;BME280;59793;46.506;6.674;2023-04-26T01:55:33;97146.38;;;8.33;67.64
71917;BME280;59793;46.506;6.674;2023-04-26T01:57:59;97117.84;;;8.32;67.17
71917;BME280;59793;46.506;6.674;2023-04-26T02:00:25;97137.84;;;8.45;67.09
71917;BME280;59793;46.506;6.674;2023-04-26T02:02:56;97131.38;;;8.22;67.66
71917;BME280;59793;46.506;6.674;2023-04-26T02:05:22;97127.84;;;8.38;66.51
71917;BME280;59793;46.506;6.674;2023-04-26T02:07:48;97131.28;;;8.51;66.69
71917;BME280;59793;46.506;6.674;2023-04-26T02:10:13;97134.44;;;8.45;67.87
71917;BME280;59793;46.506;6.674;2023-04-26T02:12:39;97134.34;;;8.41;68.22
71917;BME280;59793;46.506;6.674;2023-04-26T02:15:04;97100.16;;;8.08;68.42
71917;BME280;59793;46.506;6.674;2023-04-26T02:17:31;97131.84;;;8.24;68.14
71917;BME280;59793;46.506;6.674;2023-04-26T02:19:56;97113.16;;;8.04;68.29
71917;BME280;59793;46.506;6.674;2023-04-26T02:22:23;97121.56;;;8.31;67.83
71917;BME280;59793;46.506;6.674;2023-04-26T02:24:50;97115.00;;;8.25;67.41
71917;BME280;59793;46.506;6.674;2023-04-26T02:27:16;97128.81;;;8.34;67.52
71917;BME280;59793;46.506;6.674;2023-04-26T02:29:41;97100.75;;;8.13;67.55
71917;BME280;59793;46.506;6.674;2023-04-26T02:32:07;97116.72;;;8.42;67.12
71917;BME280;59793;46.506;6.674;2023-04-26T02:34:33;97124.47;;;8.38;67.58
71917;BME280;59793;46.506;6.674;2023-04-26T02:36:58;97125.22;;;8.38;67.45
71917;BME280;59793;46.506;6.674;2023-04-26T02:39:23;97128.00;;;8.21;68.20
71917;BME280;59793;46.506;6.674;2023-04-26T02:41:50;97109.59;;;7.88;68.96
71917;BME280;59793;46.506;6.674;2023-04-26T02:44:15;97138.41;;;8.09;68.41
71917;BME280;59793;46.506;6.674;2023-04-26T02:46:41;97100.63;;;7.89;68.42
71917;BME280;59793;46.506;6.674;2023-04-26T02:49:06;97112.91;;;7.97;68.32
71917;BME280;59793;46.506;6.674;2023-04-26T02:51:32;97122.50;;;7.93;68.35
71917;BME280;59793;46.506;6.674;2023-04-26T02:53:58;97117.50;;;8.00;68.10
71917;BME280;59793;46.506;6.674;2023-04-26T02:56:23;97115.50;;;7.85;68.47
71917;BME280;59793;46.506;6.674;2023-04-26T02:58:49;97120.34;;;7.53;70.13
71917;BME280;59793;46.506;6.674;2023-04-26T03:01:14;97143.28;;;7.56;69.96
71917;BME280;59793;46.506;6.674;2023-04-26T03:03:41;97139.97;;;7.38;70.87
71917;BME280;59793;46.506;6.674;2023-04-26T03:06:06;97113.28;;;7.15;71.00
71917;BME280;59793;46.506;6.674;2023-04-26T03:08:32;97122.31;;;7.27;71.08
71917;BME280;59793;46.506;6.674;2023-04-26T03:10:59;97141.34;;;7.45;70.59
71917;BME280;59793;46.506;6.674;2023-04-26T03:13:24;97138.72;;;7.45;70.52
71917;BME280;59793;46.506;6.674;2023-04-26T03:15:50;97112.88;;;7.34;70.52
71917;BME280;59793;46.506;6.674;2023-04-26T03:18:17;97102.13;;;7.27;70.63
71917;BME280;59793;46.506;6.674;2023-04-26T03:20:42;97111.47;;;7.37;70.68
71917;BME280;59793;46.506;6.674;2023-04-26T03:23:07;97131.75;;;7.49;70.94
71917;BME280;59793;46.506;6.674;2023-04-26T03:25:33;97127.47;;;7.44;71.11
71917;BME280;59793;46.506;6.674;2023-04-26T03:27:58;97111.72;;;7.23;71.44
71917;BME280;59793;46.506;6.674;2023-04-26T03:30:24;97114.28;;;7.32;71.24
71917;BME280;59793;46.506;6.674;2023-04-26T03:32:50;97094.19;;;7.15;71.67
71917;BME280;59793;46.506;6.674;2023-04-26T03:35:16;97134.94;;;7.33;72.06
71917;BME280;59793;46.506;6.674;2023-04-26T03:37:41;97097.31;;;7.08;72.30
71917;BME280;59793;46.506;6.674;2023-04-26T03:40:07;97126.75;;;7.35;72.21
71917;BME280;59793;46.506;6.674;2023-04-26T03:42:34;97127.84;;;7.34;72.31
71917;BME280;59793;46.506;6.674;2023-04-26T03:45:00;97122.72;;;7.37;72.19
71917;BME280;59793;46.506;6.674;2023-04-26T03:47:25;97127.66;;;7.39;71.85
71917;BME280;59793;46.506;6.674;2023-04-26T03:49:51;97098.47;;;7.19;71.71
71917;BME280;59793;46.506;6.674;2023-04-26T03:52:16;97119.00;;;7.17;72.37
71917;BME280;59793;46.506;6.674;2023-04-26T03:54:42;97116.81;;;7.19;72.49
71917;BME280;59793;46.506;6.674;2023-04-26T03:57:07;97111.84;;;7.27;72.91
71917;BME280;59793;46.506;6.674;2023-04-26T03:59:33;97085.47;;;7.02;72.95
71917;BME280;59793;46.506;6.674;2023-04-26T04:01:58;97118.34;;;7.21;73.52
71917;BME280;59793;46.506;6.674;2023-04-26T04:04:24;97104.56;;;7.03;73.10
71917;BME280;59793;46.506;6.674;2023-04-26T04:06:49;97093.69;;;6.92;73.08
71917;BME280;59793;46.506;6.674;2023-04-26T04:09:14;97115.84;;;7.03;73.04
71917;BME280;59793;46.506;6.674;2023-04-26T04:11:40;97079.88;;;6.74;73.15
71917;BME280;59793;46.506;6.674;2023-04-26T04:14:05;97033.84;;;6.35;73.78
71917;BME280;59793;46.506;6.674;2023-04-26T04:16:31;97098.69;;;6.67;73.36
71917;BME280;59793;46.506;6.674;2023-04-26T04:18:57;97048.31;;;6.32;73.67
71917;BME280;59793;46.506;6.674;2023-04-26T04:21:22;97123.63;;;6.82;73.44
71917;BME280;59793;46.506;6.674;2023-04-26T04:23:47;97088.75;;;6.52;73.56
71917;BME280;59793;46.506;6.674;2023-04-26T04:26:14;97094.50;;;6.37;73.45
71917;BME280;59793;46.506;6.674;2023-04-26T04:28:40;97132.28;;;6.57;73.75
71917;BME280;59793;46.506;6.674;2023-04-26T04:31:06;97139.22;;;6.61;73.59
71917;BME280;59793;46.506;6.674;2023-04-26T04:33:35;97140.00;;;6.62;73.42
71917;BME280;59793;46.506;6.674;2023-04-26T04:36:01;97147.53;;;6.63;73.75
71917;BME280;59793;46.506;6.674;2023-04-26T04:38:26;97088.06;;;6.17;73.71
71917;BME280;59793;46.506;6.674;2023-04-26T04:40:51;97141.13;;;6.43;74.34
71917;BME280;59793;46.506;6.674;2023-04-26T04:43:17;97146.19;;;6.49;74.44
71917;BME280;59793;46.506;6.674;2023-04-26T04:45:43;97119.88;;;6.28;74.47
71917;BME280;59793;46.506;6.674;2023-04-26T04:48:09;97133.28;;;6.43;74.31
71917;BME280;59793;46.506;6.674;2023-04-26T04:50:35;97129.09;;;6.51;74.55
71917;BME280;59793;46.506;6.674;2023-04-26T04:53:02;97112.31;;;6.52;74.21
71917;BME280;59793;46.506;6.674;2023-04-26T04:55:28;97108.78;;;6.48;74.01
71917;BME280;59793;46.506;6.674;2023-04-26T04:57:53;97146.28;;;6.69;73.76
71917;BME280;59793;46.506;6.674;2023-04-26T05:00:19;97158.72;;;6.81;73.83
71917;BME280;59793;46.506;6.674;2023-04-26T05:02:45;97140.56;;;6.76;73.29
71917;BME280;59793;46.506;6.674;2023-04-26T05:05:10;97156.22;;;6.93;73.25
71917;BME280;59793;46.506;6.674;2023-04-26T05:07:36;97159.78;;;6.89;73.59
71917;BME280;59793;46.506;6.674;2023-04-26T05:10:02;97168.09;;;6.91;73.33
71917;BME280;59793;46.506;6.674;2023-04-26T05:12:28;97137.34;;;6.70;73.00
71917;BME280;59793;46.506;6.674;2023-04-26T05:14:53;97166.41;;;6.86;73.56
71917;BME280;59793;46.506;6.674;2023-04-26T05:17:19;97170.91;;;6.86;73.26
71917;BME280;59793;46.506;6.674;2023-04-26T05:19:44;97178.56;;;6.91;73.54
71917;BME280;59793;46.506;6.674;2023-04-26T05:22:10;97156.75;;;6.69;73.86
71917;BME280;59793;46.506;6.674;2023-04-26T05:24:35;97144.63;;;6.65;74.02
71917;BME280;59793;46.506;6.674;2023-04-26T05:27:01;97171.81;;;6.90;73.81
71917;BME280;59793;46.506;6.674;2023-04-26T05:29:29;97163.75;;;6.95;73.48
71917;BME280;59793;46.506;6.674;2023-04-26T05:31:55;97172.94;;;7.10;72.93
71917;BME280;59793;46.506;6.674;2023-04-26T05:34:22;97149.34;;;7.18;72.80
71917;BME280;59793;46.506;6.674;2023-04-26T05:36:47;97157.88;;;7.36;72.43
71917;BME280;59793;46.506;6.674;2023-04-26T05:39:13;97174.47;;;7.79;71.45
71917;BME280;59793;46.506;6.674;2023-04-26T05:41:38;97177.66;;;8.05;70.63
71917;BME280;59793;46.506;6.674;2023-04-26T05:44:03;97182.38;;;8.12;70.20
71917;BME280;59793;46.506;6.674;2023-04-26T05:46:29;97179.75;;;8.33;69.92
71917;BME280;59793;46.506;6.674;2023-04-26T05:48:54;97143.53;;;8.26;69.35
71917;BME280;59793;46.506;6.674;2023-04-26T05:51:20;97159.09;;;8.52;69.37
71917;BME280;59793;46.506;6.674;2023-04-26T05:53:45;97148.41;;;8.70;68.67
71917;BME280;59793;46.506;6.674;2023-04-26T05:56:11;97175.16;;;8.96;68.55
71917;BME280;59793;46.506;6.674;2023-04-26T05:58:36;97164.66;;;9.08;67.95
71917;BME280;59793;46.506;6.674;2023-04-26T06:01:01;97174.41;;;9.32;67.11
71917;BME280;59793;46.506;6.674;2023-04-26T06:03:27;97176.19;;;9.41;67.12
71917;BME280;59793;46.506;6.674;2023-04-26T06:05:52;97201.47;;;9.57;67.16
71917;BME280;59793;46.506;6.674;2023-04-26T06:08:18;97196.44;;;9.65;67.26
71917;BME280;59793;46.506;6.674;2023-04-26T06:10:43;97203.22;;;9.66;67.61
71917;BME280;59793;46.506;6.674;2023-04-26T06:13:08;97196.97;;;9.70;67.41
71917;BME280;59793;46.506;6.674;2023-04-26T06:15:34;97197.41;;;9.72;67.21
71917;BME280;59793;46.506;6.674;2023-04-26T06:17:59;97185.81;;;9.61;67.58
71917;BME280;59793;46.506;6.674;2023-04-26T06:20:25;97190.03;;;9.78;66.64
71917;BME280;59793;46.506;6.674;2023-04-26T06:22:50;97144.50;;;9.49;66.70
71917;BME280;59793;46.506;6.674;2023-04-26T06:25:15;97192.25;;;9.76;65.70
71917;BME280;59793;46.506;6.674;2023-04-26T06:27:41;97207.81;;;9.93;65.74
71917;BME280;59793;46.506;6.674;2023-04-26T06:30:07;97185.75;;;9.86;65.94
71917;BME280;59793;46.506;6.674;2023-04-26T06:32:32;97198.91;;;9.98;65.06
71917;BME280;59793;46.506;6.674;2023-04-26T06:34:58;97196.38;;;10.01;64.16
71917;BME280;59793;46.506;6.674;2023-04-26T06:37:23;97201.19;;;9.99;63.72
71917;BME280;59793;46.506;6.674;2023-04-26T06:39:48;97201.88;;;9.84;64.79
71917;BME280;59793;46.506;6.674;2023-04-26T06:42:14;97207.75;;;10.05;63.46
71917;BME280;59793;46.506;6.674;2023-04-26T06:44:39;97214.03;;;10.01;63.43
71917;BME280;59793;46.506;6.674;2023-04-26T06:47:04;97207.59;;;9.86;64.11
71917;BME280;59793;46.506;6.674;2023-04-26T06:49:34;97185.63;;;9.94;62.38
71917;BME280;59793;46.506;6.674;2023-04-26T06:51:59;97193.47;;;10.19;62.70
71917;BME280;59793;46.506;6.674;2023-04-26T06:54:28;97208.63;;;10.22;62.09
71917;BME280;59793;46.506;6.674;2023-04-26T06:56:54;97197.69;;;9.95;62.77
71917;BME280;59793;46.506;6.674;2023-04-26T06:59:19;97211.25;;;10.22;62.70
71917;BME280;59793;46.506;6.674;2023-04-26T07:01:44;97211.38;;;10.25;62.66
71917;BME280;59793;46.506;6.674;2023-04-26T07:04:10;97196.00;;;10.27;61.90
71917;BME280;59793;46.506;6.674;2023-04-26T07:06:37;97173.94;;;10.20;61.63
71917;BME280;59793;46.506;6.674;2023-04-26T07:09:04;97178.09;;;10.21;61.33
71917;BME280;59793;46.506;6.674;2023-04-26T07:11:30;97201.78;;;10.33;61.75
71917;BME280;59793;46.506;6.674;2023-04-26T07:13:56;97184.78;;;10.31;61.44
71917;BME280;59793;46.506;6.674;2023-04-26T07:16:22;97198.00;;;10.06;61.83
71917;BME280;59793;46.506;6.674;2023-04-26T07:18:47;97206.53;;;10.27;61.45
71917;BME280;59793;46.506;6.674;2023-04-26T07:21:13;97184.41;;;10.04;61.83
71917;BME280;59793;46.506;6.674;2023-04-26T07:23:39;97206.09;;;10.13;62.39
71917;BME280;59793;46.506;6.674;2023-04-26T07:26:05;97206.72;;;10.35;61.80
71917;BME280;59793;46.506;6.674;2023-04-26T07:28:30;97183.97;;;10.02;61.43
71917;BME280;59793;46.506;6.674;2023-04-26T07:31:00;97193.53;;;9.94;62.20
71917;BME280;59793;46.506;6.674;2023-04-26T07:33:25;97192.06;;;10.21;62.54
71917;BME280;59793;46.506;6.674;2023-04-26T07:35:56;97198.09;;;10.78;60.81
71917;BME280;59793;46.506;6.674;2023-04-26T07:38:22;97182.81;;;10.56;61.10
71917;BME280;59793;46.506;6.674;2023-04-26T07:40:48;97182.69;;;10.80;60.85
71917;BME280;59793;46.506;6.674;2023-04-26T07:43:13;97179.59;;;11.06;59.73
71917;BME280;59793;46.506;6.674;2023-04-26T07:45:40;97136.03;;;10.96;59.12
71917;BME280;59793;46.506;6.674;2023-04-26T07:48:05;97172.41;;;10.75;61.15
71917;BME280;59793;46.506;6.674;2023-04-26T07:50:31;97095.81;;;10.84;59.24
71917;BME280;59793;46.506;6.674;2023-04-26T07:52:56;97152.25;;;11.30;58.62
71917;BME280;59793;46.506;6.674;2023-04-26T07:55:22;97160.34;;;11.37;57.67
71917;BME280;59793;46.506;6.674;2023-04-26T07:57:47;97156.91;;;11.53;57.24
71917;BME280;59793;46.506;6.674;2023-04-26T08:00:13;97169.47;;;11.75;58.15
71917;BME280;59793;46.506;6.674;2023-04-26T08:02:40;97148.34;;;11.75;55.74
71917;BME280;59793;46.506;6.674;2023-04-26T08:05:05;97149.56;;;11.62;54.55
71917;BME280;59793;46.506;6.674;2023-04-26T08:07:31;97154.66;;;11.70;54.89
71917;BME280;59793;46.506;6.674;2023-04-26T08:09:56;97160.81;;;11.59;54.59
71917;BME280;59793;46.506;6.674;2023-04-26T08:12:22;97159.78;;;11.63;55.47
71917;BME280;59793;46.506;6.674;2023-04-26T08:14:47;97171.25;;;11.71;55.04
71917;BME280;59793;46.506;6.674;2023-04-26T08:17:12;97126.16;;;11.25;56.33
71917;BME280;59793;46.506;6.674;2023-04-26T08:19:38;97147.91;;;11.73;55.05
71917;BME280;59793;46.506;6.674;2023-04-26T08:22:03;97171.06;;;12.15;52.97
71917;BME280;59793;46.506;6.674;2023-04-26T08:24:30;97141.59;;;12.13;53.78
71917;BME280;59793;46.506;6.674;2023-04-26T08:26:55;97175.16;;;12.32;53.55
71917;BME280;59793;46.506;6.674;2023-04-26T08:29:22;97169.47;;;11.75;53.61
71917;BME280;59793;46.506;6.674;2023-04-26T08:31:48;97134.72;;;11.73;54.52
71917;BME280;59793;46.506;6.674;2023-04-26T08:34:13;97146.38;;;11.72;55.24
71917;BME280;59793;46.506;6.674;2023-04-26T08:36:39;97170.63;;;11.93;55.63
71917;BME280;59793;46.506;6.674;2023-04-26T08:39:06;97170.72;;;12.16;55.46
71917;BME280;59793;46.506;6.674;2023-04-26T08:41:35;97141.88;;;11.88;55.33
71917;BME280;59793;46.506;6.674;2023-04-26T08:44:02;97148.63;;;12.05;53.35
71917;BME280;59793;46.506;6.674;2023-04-26T08:46:33;97174.38;;;12.12;54.13
71917;BME280;59793;46.506;6.674;2023-04-26T08:51:49;97168.78;;;12.13;53.12
71917;BME280;59793;46.506;6.674;2023-04-26T08:54:16;97167.72;;;12.18;53.05
71917;BME280;59793;46.506;6.674;2023-04-26T08:56:43;97174.25;;;12.05;53.46
71917;BME280;59793;46.506;6.674;2023-04-26T08:59:08;97160.22;;;12.20;52.53
71917;BME280;59793;46.506;6.674;2023-04-26T09:01:38;97151.38;;;12.32;51.78
71917;BME280;59793;46.506;6.674;2023-04-26T09:04:04;97156.63;;;12.09;53.45
71917;BME280;59793;46.506;6.674;2023-04-26T09:06:29;97165.38;;;12.13;52.93
71917;BME280;59793;46.506;6.674;2023-04-26T09:08:56;97138.03;;;12.25;53.71
71917;BME280;59793;46.506;6.674;2023-04-26T09:11:22;97168.31;;;12.50;53.75
71917;BME280;59793;46.506;6.674;2023-04-26T09:13:47;97157.69;;;12.66;52.48
71917;BME280;59793;46.506;6.674;2023-04-26T09:16:13;97159.44;;;12.58;54.69
71917;BME280;59793;46.506;6.674;2023-04-26T09:18:50;97167.06;;;12.63;52.98
71917;BME280;59793;46.506;6.674;2023-04-26T09:21:21;97141.13;;;12.50;54.06
71917;BME280;59793;46.506;6.674;2023-04-26T09:23:57;97166.44;;;12.93;53.42
71917;BME280;59793;46.506;6.674;2023-04-26T09:26:23;97158.66;;;12.58;55.09
71917;BME280;59793;46.506;6.674;2023-04-26T09:28:49;97156.53;;;12.86;52.79
71917;BME280;59793;46.506;6.674;2023-04-26T09:31:43;97171.06;;;13.00;52.91
71917;BME280;59793;46.506;6.674;2023-04-26T09:34:11;97152.03;;;12.67;54.83
71917;BME280;59793;46.506;6.674;2023-04-26T09:36:52;97161.84;;;13.13;54.83
71917;BME280;59793;46.506;6.674;2023-04-26T09:39:32;97168.97;;;13.09;53.64
71917;BME280;59793;46.506;6.674;2023-04-26T09:41:58;97150.72;;;12.58;55.15
71917;BME280;59793;46.506;6.674;2023-04-26T09:44:24;97138.84;;;12.48;56.20
71917;BME280;59793;46.506;6.674;2023-04-26T09:49:32;97167.66;;;13.72;52.46
71917;BME280;59793;46.506;6.674;2023-04-26T09:52:02;97162.50;;;13.82;52.96
71917;BME280;59793;46.506;6.674;2023-04-26T09:54:59;97166.72;;;13.87;51.46
71917;BME280;59793;46.506;6.674;2023-04-26T09:57:26;97159.09;;;13.82;50.04
71917;BME280;59793;46.506;6.674;2023-04-26T09:59:52;97147.00;;;13.54;52.28
71917;BME280;59793;46.506;6.674;2023-04-26T10:02:26;97127.69;;;13.27;53.11
71917;BME280;59793;46.506;6.674;2023-04-26T10:04:55;97147.06;;;13.58;51.60
71917;BME280;59793;46.506;6.674;2023-04-26T10:07:23;97113.59;;;13.46;51.44
71917;BME280;59793;46.506;6.674;2023-04-26T10:09:49;97134.06;;;13.49;51.08
71917;BME280;59793;46.506;6.674;2023-04-26T10:12:17;97150.38;;;13.81;52.45
71917;BME280;59793;46.506;6.674;2023-04-26T10:14:44;97152.19;;;14.04;50.50
71917;BME280;59793;46.506;6.674;2023-04-26T10:17:11;97156.03;;;14.10;50.27
71917;BME280;59793;46.506;6.674;2023-04-26T10:19:38;97146.63;;;14.16;50.73
71917;BME280;59793;46.506;6.674;2023-04-26T10:22:08;97133.66;;;14.41;49.57
71917;BME280;59793;46.506;6.674;2023-04-26T10:24:35;97120.94;;;14.20;49.83
71917;BME280;59793;46.506;6.674;2023-04-26T10:27:01;97137.75;;;14.31;49.59
71917;BME280;59793;46.506;6.674;2023-04-26T10:30:03;97138.13;;;14.33;51.25
71917;BME280;59793;46.506;6.674;2023-04-26T10:32:13;97114.69;;;14.76;48.55
71917;BME280;59793;46.506;6.674;2023-04-26T10:34:42;97126.50;;;14.82;48.67
71917;BME280;59793;46.506;6.674;2023-04-26T10:37:11;97121.97;;;14.87;48.50
71917;BME280;59793;46.506;6.674;2023-04-26T10:39:42;97122.25;;;15.22;47.52
71917;BME280;59793;46.506;6.674;2023-04-26T10:49:46;97112.69;;;15.11;47.93
71917;BME280;59793;46.506;6.674;2023-04-26T10:52:14;97097.84;;;14.99;47.06
71917;BME280;59793;46.506;6.674;2023-04-26T10:54:53;97099.34;;;15.00;46.91
71917;BME280;59793;46.506;6.674;2023-04-26T10:57:19;97103.09;;;15.50;45.55
71917;BME280;59793;46.506;6.674;2023-04-26T11:02:55;97096.41;;;15.12;45.84
71917;BME280;59793;46.506;6.674;2023-04-26T11:08:29;97098.34;;;15.81;43.13
71917;BME280;59793;46.506;6.674;2023-04-26T11:13:31;97104.16;;;16.15;40.84
71917;BME280;59793;46.506;6.674;2023-04-26T11:16:01;97081.25;;;15.82;41.49
71917;BME280;59793;46.506;6.674;2023-04-26T11:18:28;97105.88;;;15.68;43.84
71917;BME280;59793;46.506;6.674;2023-04-26T11:20:54;97114.69;;;15.87;45.02
71917;BME280;59793;46.506;6.674;2023-04-26T11:23:19;97094.16;;;15.76;41.76
71917;BME280;59793;46.506;6.674;2023-04-26T11:25:46;97078.50;;;15.64;42.61
71917;BME280;59793;46.506;6.674;2023-04-26T11:28:12;97062.13;;;15.48;42.55
71917;BME280;59793;46.506;6.674;2023-04-26T11:30:38;97093.19;;;15.47;44.12
71917;BME280;59793;46.506;6.674;2023-04-26T11:33:04;97078.63;;;15.86;39.63
71917;BME280;59793;46.506;6.674;2023-04-26T11:35:32;97094.69;;;16.29;40.93
71917;BME280;59793;46.506;6.674;2023-04-26T11:37:59;97077.22;;;16.35;39.57
71917;BME280;59793;46.506;6.674;2023-04-26T11:40:30;97083.34;;;16.67;40.95
71917;BME280;59793;46.506;6.674;2023-04-26T11:43:05;97087.94;;;16.92;40.49
71917;BME280;59793;46.506;6.674;2023-04-26T11:45:35;97080.31;;;16.44;39.58
71917;BME280;59793;46.506;6.674;2023-04-26T11:48:02;97075.75;;;16.55;39.80
71917;BME280;59793;46.506;6.674;2023-04-26T11:50:30;97056.78;;;16.82;38.66
71917;BME280;59793;46.506;6.674;2023-04-26T11:52:59;97059.81;;;16.91;38.50
71917;BME280;59793;46.506;6.674;2023-04-26T11:55:29;97043.84;;;16.69;38.66
71917;BME280;59793;46.506;6.674;2023-04-26T11:58:08;97056.00;;;16.99;39.07
71917;BME280;59793;46.506;6.674;2023-04-26T12:00:34;97055.63;;;17.04;38.71
71917;BME280;59793;46.506;6.674;2023-04-26T12:03:06;97043.06;;;17.01;38.74
71917;BME280;59793;46.506;6.674;2023-04-26T12:05:35;97037.03;;;16.79;39.06
71917;BME280;59793;46.506;6.674;2023-04-26T12:08:00;97050.31;;;16.86;36.94
71917;BME280;59793;46.506;6.674;2023-04-26T12:10:34;97045.34;;;16.92;38.04
71917;BME280;59793;46.506;6.674;2023-04-26T12:13:01;97038.13;;;17.07;36.84
71917;BME280;59793;46.506;6.674;2023-04-26T12:15:31;97048.34;;;17.23;39.36
71917;BME280;59793;46.506;6.674;2023-04-26T12:17:59;97049.84;;;17.34;39.37
71917;BME280;59793;46.506;6.674;2023-04-26T12:20:30;97041.81;;;17.52;38.39
71917;BME280;59793;46.506;6.674;2023-04-26T12:23:00;97045.03;;;18.06;38.47
71917;BME280;59793;46.506;6.674;2023-04-26T12:25:26;97014.66;;;17.86;38.40
71917;BME280;59793;46.506;6.674;2023-04-26T12:27:52;97016.97;;;17.73;37.89
71917;BME280;59793;46.506;6.674;2023-04-26T12:30:17;97022.00;;;17.60;34.19
71917;BME280;59793;46.506;6.674;2023-04-26T12:32:43;97037.25;;;17.56;36.39
71917;BME280;59793;46.506;6.674;2023-04-26T12:35:08;97033.34;;;17.82;36.94
71917;BME280;59793;46.506;6.674;2023-04-26T12:37:33;97036.38;;;17.74;35.47
71917;BME280;59793;46.506;6.674;2023-04-26T12:39:59;97016.09;;;16.88;35.73
71917;BME280;59793;46.506;6.674;2023-04-26T12:42:25;97036.75;;;17.83;33.31
71917;BME280;59793;46.506;6.674;2023-04-26T12:44:51;97010.63;;;17.49;33.89
71917;BME280;59793;46.506;6.674;2023-04-26T12:47:16;97042.72;;;18.08;32.87
71917;BME280;59793;46.506;6.674;2023-04-26T12:49:42;97036.94;;;18.21;30.76
71917;BME280;59793;46.506;6.674;2023-04-26T12:52:07;97040.53;;;17.89;32.38
71917;BME280;59793;46.506;6.674;2023-04-26T12:54:33;97021.56;;;17.76;35.21
71917;BME280;59793;46.506;6.674;2023-04-26T12:56:58;97034.44;;;17.92;32.43
71917;BME280;59793;46.506;6.674;2023-04-26T12:59:24;97032.00;;;18.15;32.66
71917;BME280;59793;46.506;6.674;2023-04-26T13:01:49;97034.59;;;18.26;32.63
71917;BME280;59793;46.506;6.674;2023-04-26T13:04:15;97034.31;;;18.17;34.02
71917;BME280;59793;46.506;6.674;2023-04-26T13:06:40;97011.09;;;18.10;35.70
71917;BME280;59793;46.506;6.674;2023-04-26T13:09:06;97029.53;;;17.80;35.31
71917;BME280;59793;46.506;6.674;2023-04-26T13:11:32;97031.09;;;17.63;35.19
71917;BME280;59793;46.506;6.674;2023-04-26T13:13:58;97007.59;;;17.40;34.30
71917;BME280;59793;46.506;6.674;2023-04-26T13:16:24;97019.44;;;17.32;36.29
71917;BME280;59793;46.506;6.674;2023-04-26T13:18:49;96979.09;;;17.30;33.81
71917;BME280;59793;46.506;6.674;2023-04-26T13:21:15;96984.00;;;17.38;35.61
71917;BME280;59793;46.506;6.674;2023-04-26T13:23:40;97031.50;;;17.61;38.60